Time,TemperatureF,DewpointF,PressureIn,WindDirection,WindDirectionDegrees,WindSpeedMPH,WindSpeedGustMPH,Humidity,HourlyPrecipIn,Conditions,Clouds,dailyrainin,SoftwareType,DateUTC
2017-05-29 00:01:00,58.9,56.9,30.00,NW,324,0.0,5.0,93,0.00,,,0.03,VWS V15.00,2017-05-29 05:01:00,
2017-05-29 00:11:00,58.7,56.7,30.00,NW,324,0.0,5.0,93,0.00,,,0.00,VWS V15.00,2017-05-29 05:11:00,
2017-05-29 00:16:00,58.5,56.5,30.00,NW,324,0.0,5.0,93,0.00,,,0.00,VWS V15.00,2017-05-29 05:16:00,
2017-05-29 00:21:00,58.3,56.3,30.00,NW,324,0.0,5.0,93,0.00,,,0.00,VWS V15.00,2017-05-29 05:21:00,
2017-05-29 00:26:00,58.2,56.2,30.00,NW,324,0.0,5.0,93,0.00,,,0.00,VWS V15.00,2017-05-29 05:26:00,
2017-05-29 00:31:00,58.1,56.1,30.00,NW,324,0.0,5.0,93,0.00,,,0.00,VWS V15.00,2017-05-29 05:31:00,
2017-05-29 00:36:00,58.0,56.3,30.00,NW,324,0.0,5.0,94,0.00,,,0.00,VWS V15.00,2017-05-29 05:36:00,
2017-05-29 00:41:00,57.9,56.2,30.00,NW,324,0.0,5.0,94,0.00,,,0.00,VWS V15.00,2017-05-29 05:41:00,
2017-05-29 00:46:00,57.8,56.1,30.00,NW,324,0.0,5.0,94,0.00,,,0.00,VWS V15.00,2017-05-29 05:46:00,
2017-05-29 00:51:00,57.7,55.7,30.00,NW,324,0.0,5.0,93,0.00,,,0.00,VWS V15.00,2017-05-29 05:51:00,
2017-05-29 00:56:00,57.6,55.9,30.00,NW,324,0.0,5.0,94,0.00,,,0.00,VWS V15.00,2017-05-29 05:56:00,
2017-05-29 01:01:00,57.4,55.7,30.00,NW,324,0.0,5.0,94,0.00,,,0.00,VWS V15.00,2017-05-29 06:01:00,
2017-05-29 01:06:00,57.3,55.6,30.00,NW,324,0.0,5.0,94,0.00,,,0.00,VWS V15.00,2017-05-29 06:06:00,
2017-05-29 01:11:00,57.2,55.5,30.00,NW,324,0.0,5.0,94,0.00,,,0.00,VWS V15.00,2017-05-29 06:11:00,
2017-05-29 01:16:00,57.1,55.4,30.01,NW,324,0.0,5.0,94,0.00,,,0.00,VWS V15.00,2017-05-29 06:16:00,
2017-05-29 01:21:00,57.0,55.3,30.01,NW,324,0.0,5.0,94,0.00,,,0.00,VWS V15.00,2017-05-29 06:21:00,
2017-05-29 01:26:00,56.9,55.2,30.01,NW,324,0.0,5.0,94,0.00,,,0.00,VWS V15.00,2017-05-29 06:26:00,
2017-05-29 01:31:00,56.8,55.1,30.01,NW,324,0.0,5.0,94,0.00,,,0.00,VWS V15.00,2017-05-29 06:31:00,
2017-05-29 01:36:00,56.9,55.5,30.01,NW,324,0.0,5.0,95,0.00,,,0.00,VWS V15.00,2017-05-29 06:36:00,
2017-05-29 01:41:00,57.0,55.6,30.01,NW,324,0.0,5.0,95,0.00,,,0.00,VWS V15.00,2017-05-29 06:41:00,
2017-05-29 01:46:00,57.0,55.6,30.02,NW,324,0.0,5.0,95,0.00,,,0.00,VWS V15.00,2017-05-29 06:46:00,
2017-05-29 01:51:00,56.9,55.5,30.02,NW,324,0.0,5.0,95,0.00,,,0.00,VWS V15.00,2017-05-29 06:51:00,
2017-05-29 01:56:00,57.0,55.6,30.02,NW,324,0.0,5.0,95,0.00,,,0.00,VWS V15.00,2017-05-29 06:56:00,
2017-05-29 02:01:00,57.1,55.7,30.02,NW,324,0.0,5.0,95,0.00,,,0.00,VWS V15.00,2017-05-29 07:01:00,
2017-05-29 02:06:00,57.2,55.8,30.02,NW,324,0.0,5.0,95,0.00,,,0.00,VWS V15.00,2017-05-29 07:06:00,
2017-05-29 02:11:00,57.3,55.9,30.02,NW,324,0.0,5.0,95,0.00,,,0.00,VWS V15.00,2017-05-29 07:11:00,
2017-05-29 02:16:00,57.2,55.8,30.01,NW,324,0.0,5.0,95,0.00,,,0.00,VWS V15.00,2017-05-29 07:16:00,
2017-05-29 02:21:00,57.2,55.8,30.01,NW,324,0.0,5.0,95,0.00,,,0.00,VWS V15.00,2017-05-29 07:21:00,
2017-05-29 02:26:00,57.1,55.7,30.01,NW,324,0.0,5.0,95,0.00,,,0.00,VWS V15.00,2017-05-29 07:26:00,
2017-05-29 02:31:00,57.1,55.7,30.01,NW,324,0.0,5.0,95,0.00,,,0.00,VWS V15.00,2017-05-29 07:31:00,
2017-05-29 02:36:00,57.1,55.7,30.01,NW,324,0.0,5.0,95,0.00,,,0.00,VWS V15.00,2017-05-29 07:36:00,
2017-05-29 02:41:00,57.0,55.6,30.01,NW,324,0.0,5.0,95,0.00,,,0.00,VWS V15.00,2017-05-29 07:41:00,
2017-05-29 02:46:00,56.9,55.5,30.02,NW,324,0.0,5.0,95,0.00,,,0.00,VWS V15.00,2017-05-29 07:46:00,
2017-05-29 02:51:00,56.9,55.5,30.02,NW,324,0.0,5.0,95,0.00,,,0.00,VWS V15.00,2017-05-29 07:51:00,
2017-05-29 02:56:00,56.8,55.4,30.02,NW,324,0.0,5.0,95,0.00,,,0.00,VWS V15.00,2017-05-29 07:56:00,
2017-05-29 03:01:00,56.8,55.4,30.02,NW,324,0.0,5.0,95,0.00,,,0.00,VWS V15.00,2017-05-29 08:01:00,
2017-05-29 03:11:00,56.7,55.3,30.02,NW,324,0.0,5.0,95,0.00,,,0.00,VWS V15.00,2017-05-29 08:11:00,
2017-05-29 03:16:00,56.6,55.2,30.02,NW,324,0.0,5.0,95,0.00,,,0.00,VWS V15.00,2017-05-29 08:16:00,
2017-05-29 03:26:00,56.4,55.3,30.02,NW,324,0.0,5.0,96,0.00,,,0.00,VWS V15.00,2017-05-29 08:26:00,
2017-05-29 03:31:00,56.3,54.9,30.02,NW,324,0.0,5.0,95,0.00,,,0.00,VWS V15.00,2017-05-29 08:31:00,
2017-05-29 03:36:00,56.3,54.9,30.02,NW,324,0.0,5.0,95,0.00,,,0.00,VWS V15.00,2017-05-29 08:36:00,
2017-05-29 03:41:00,56.2,55.1,30.02,NW,324,0.0,5.0,96,0.00,,,0.00,VWS V15.00,2017-05-29 08:41:00,
2017-05-29 03:46:00,56.1,55.0,30.02,NW,324,0.0,5.0,96,0.00,,,0.00,VWS V15.00,2017-05-29 08:46:00,
2017-05-29 03:51:00,56.0,54.9,30.02,NW,324,0.0,5.0,96,0.00,,,0.00,VWS V15.00,2017-05-29 08:51:00,
2017-05-29 03:56:00,56.0,54.9,30.02,NW,324,0.0,5.0,96,0.00,,,0.00,VWS V15.00,2017-05-29 08:56:00,
2017-05-29 04:01:00,55.9,54.8,30.01,NW,324,0.0,5.0,96,0.00,,,0.00,VWS V15.00,2017-05-29 09:01:00,